Time;durP1;ratioP1;P1;durP2;ratioP2;P2;SDS_P1;SDS_P2;PMS_P1;PMS_P2;Temp;Humidity;BMP_temperature;BMP_pressure;BME280_temperature;BME280_humidity;BME280_pressure;Samples;Min_cycle;Max_cycle;Signal;HPM_P1;HPM_P2
2022/12/14 00:01:09;;;;;;;13.03;7.77;;;1.50;68.70;;;2.02;44.89;97431.13;4964607;28;118357;-74
2022/12/14 00:03:36;;;;;;;14.43;7.27;;;1.50;68.60;;;2.03;45.28;97428.09;4943916;28;124469;-75
2022/12/14 00:06:21;;;;;;;16.63;8.60;;;1.90;69.00;;;2.06;45.12;97422.06;4963129;28;124468;-74
2022/12/14 00:08:51;;;;;;;16.73;9.13;;;1.50;68.70;;;2.02;44.86;97421.03;4942836;28;119095;-74
2022/12/14 00:11:18;;;;;;;14.30;8.30;;;1.60;68.50;;;1.97;44.97;97402.81;4944717;28;118897;-74
2022/12/14 00:13:46;;;;;;;12.93;8.83;;;1.50;68.60;;;1.96;45.30;97401.22;4946436;28;123983;-75
2022/12/14 00:16:16;;;;;;;14.37;9.20;;;1.50;69.30;;;1.97;45.24;97386.47;4966312;28;123710;-74
2022/12/14 00:18:43;;;;;;;13.33;7.47;;;1.50;68.70;;;2.00;45.26;97379.66;4948338;28;119176;-75
2022/12/14 00:21:12;;;;;;;14.47;8.37;;;1.50;68.80;;;2.03;45.49;97373.59;4946440;28;119542;-74
2022/12/14 00:23:41;;;;;;;16.00;7.70;;;1.60;68.90;;;2.03;45.11;97373.59;4964102;28;127085;-74
2022/12/14 00:26:10;;;;;;;13.30;7.53;;;1.60;68.80;;;2.06;45.23;97388.56;4963873;28;123799;-74
2022/12/14 00:28:37;;;;;;;14.33;8.30;;;1.60;68.80;;;2.06;45.35;97380.38;4964049;28;119302;-75
2022/12/14 00:31:04;;;;;;;15.10;8.27;;;1.60;68.80;;;2.03;45.18;97379.06;4964829;28;117972;-75
2022/12/14 00:33:32;;;;;;;14.70;7.93;;;1.60;68.80;;;2.04;45.02;97364.31;4963253;28;126308;-75
2022/12/14 00:35:59;;;;;;;17.10;8.33;;;1.60;68.80;;;2.04;45.27;97372.50;4963678;28;123900;-75
2022/12/14 00:38:26;;;;;;;14.50;9.07;;;1.50;68.70;;;2.02;45.27;97372.00;4963788;28;119812;-74
2022/12/14 00:40:54;;;;;;;11.87;8.13;;;1.50;68.70;;;1.99;45.03;97367.13;4946293;28;118916;-75
2022/12/14 00:43:22;;;;;;;15.63;8.30;;;1.50;68.70;;;1.98;45.57;97374.47;4962439;28;124105;-74
2022/12/14 00:45:49;;;;;;;13.80;8.60;;;1.50;68.90;;;2.01;45.52;97362.19;4963571;28;124132;-74
2022/12/14 00:48:18;;;;;;;16.47;7.97;;;1.50;69.00;;;2.03;45.35;97368.16;4964388;28;119555;-75
2022/12/14 00:50:47;;;;;;;13.83;8.80;;;1.60;69.10;;;2.04;45.43;97364.31;4962945;28;119770;-75
2022/12/14 00:53:13;;;;;;;16.57;9.27;;;1.50;68.90;;;2.04;45.42;97352.63;4953959;28;124165;-75
2022/12/14 00:55:42;;;;;;;13.20;7.40;;;1.60;69.00;;;2.04;45.27;97358.88;4962095;28;124074;-75
2022/12/14 00:58:12;;;;;;;10.77;7.50;;;1.60;69.00;;;2.06;45.16;97370.28;4947425;28;119439;-76
2022/12/14 01:00:39;;;;;;;16.00;8.80;;;1.60;69.10;;;2.08;45.31;97367.28;4966511;28;118923;-75
2022/12/14 01:03:07;;;;;;;14.63;7.60;;;1.60;69.20;;;2.10;45.70;97365.91;4965427;28;124638;-75
2022/12/14 01:05:34;;;;;;;15.83;7.80;;;1.70;69.30;;;2.13;45.42;97361.78;4962014;28;123821;-75
2022/12/14 01:08:01;;;;;;;15.63;8.23;;;1.70;69.30;;;2.14;45.89;97364.19;4967772;28;119599;-76
2022/12/14 01:10:28;;;;;;;14.33;8.17;;;1.70;69.30;;;2.16;45.53;97367.44;4959423;28;119746;-76
2022/12/14 01:12:55;;;;;;;13.47;7.80;;;1.70;69.20;;;2.16;45.23;97367.44;4964286;28;123901;-75
2022/12/14 01:15:21;;;;;;;11.63;6.90;;;1.70;69.20;;;2.17;45.43;97365.53;4946887;28;123833;-75
2022/12/14 01:17:51;;;;;;;15.30;7.33;;;1.70;69.50;;;2.20;45.30;97365.75;4931932;28;118617;-75
2022/12/14 01:20:18;;;;;;;11.43;7.67;;;1.70;69.20;;;2.20;45.30;97368.50;4965708;28;119026;-75
2022/12/14 01:22:44;;;;;;;17.70;8.40;;;1.70;69.20;;;2.21;45.80;97352.94;4962641;28;124608;-75
2022/12/14 01:25:11;;;;;;;16.00;10.47;;;1.80;69.30;;;2.20;45.23;97349.41;4961564;28;123668;-74
2022/12/14 01:27:38;;;;;;;14.83;8.70;;;1.80;69.30;;;2.18;45.23;97343.44;4965862;28;119168;-74
2022/12/14 01:30:05;;;;;;;13.20;7.97;;;1.70;69.20;;;2.18;45.63;97354.34;4965027;28;119169;-75
2022/12/14 01:32:33;;;;;;;18.37;9.67;;;1.70;69.30;;;2.16;45.34;97353.81;4966994;28;124186;-75
2022/12/14 01:35:01;;;;;;;13.93;8.40;;;1.70;69.30;;;2.14;45.50;97358.75;4939904;28;97363;-75
2022/12/14 01:37:28;;;;;;;14.83;7.80;;;1.70;69.40;;;2.12;45.84;97360.13;4963026;28;118798;-75
2022/12/14 01:39:54;;;;;;;15.10;8.20;;;1.70;69.40;;;2.11;45.55;97363.97;4946765;28;117984;-75
2022/12/14 01:42:21;;;;;;;17.40;8.57;;;1.70;69.60;;;2.14;45.77;97374.28;4964520;28;124023;-75
2022/12/14 01:44:55;;;;;;;12.53;7.63;;;2.50;70.30;;;2.16;45.35;97366.63;4961845;28;123235;-76
2022/12/14 01:47:43;;;;;;;16.03;8.93;;;1.70;69.60;;;2.14;45.81;97374.28;4952028;28;119332;-77
2022/12/14 01:50:29;;;;;;;14.00;8.27;;;1.60;69.30;;;2.06;45.62;97353.94;4953861;28;118325;-76
2022/12/14 01:53:04;;;;;;;15.73;8.10;;;1.60;69.50;;;2.05;46.03;97349.63;4967708;28;124205;-76
2022/12/14 01:55:43;;;;;;;12.70;7.77;;;2.60;70.50;;;2.08;45.85;97342.78;4956421;28;123783;-76
2022/12/14 01:58:20;;;;;;;16.70;8.37;;;1.70;69.80;;;2.10;45.81;97340.56;4967155;28;120361;-76
2022/12/14 02:00:53;;;;;;;16.80;8.73;;;1.60;69.70;;;2.08;46.02;97335.41;4954321;28;119939;-76
2022/12/14 02:03:25;;;;;;;15.10;8.60;;;1.70;70.40;;;2.06;45.90;97328.63;4962451;28;124062;-76
2022/12/14 02:06:01;;;;;;;14.50;9.27;;;1.60;69.70;;;2.07;46.15;97324.78;4957974;28;124621;-76
2022/12/14 02:08:50;;;;;;;15.50;8.43;;;1.60;69.90;;;2.10;45.91;97330.47;4967672;28;119549;-77
2022/12/14 02:11:51;;;;;;;14.90;8.80;;;1.60;69.90;;;2.08;46.04;97321.78;4954217;28;119257;-77
2022/12/14 02:14:21;;;;;;;15.37;8.87;;;3.60;71.60;;;2.05;45.80;97316.94;4965559;28;125180;-77
2022/12/14 02:16:54;;;;;;;13.90;8.00;;;1.60;69.90;;;2.08;46.16;97326.44;4942726;28;122767;-76
2022/12/14 02:19:21;;;;;;;13.73;7.90;;;1.60;70.00;;;2.08;46.21;97327.22;4941697;28;119288;-79
2022/12/14 02:21:53;;;;;;;15.80;10.00;;;1.60;70.00;;;2.11;46.29;97325.84;4947208;28;116980;-77
2022/12/14 02:25:13;;;;;;;14.73;9.60;;;1.60;70.00;;;2.14;45.66;97319.78;4954225;28;122802;-76
2022/12/14 02:28:31;;;;;;;14.27;8.00;;;1.60;70.00;;;2.10;46.12;97307.88;4947622;28;123912;-76
2022/12/14 02:31:28;;;;;;;15.57;9.40;;;1.60;70.10;;;2.09;46.31;97307.06;4963738;28;119189;-76
2022/12/14 02:34:44;;;;;;;16.60;8.93;;;1.60;70.10;;;2.08;46.30;97310.88;4933722;28;118643;-76
2022/12/14 02:37:41;;;;;;;15.97;9.27;;;1.60;70.20;;;2.09;46.16;97317.13;4923775;28;124247;-76
2022/12/14 02:40:27;;;;;;;13.80;8.40;;;1.60;70.30;;;2.11;46.34;97314.94;4934156;28;122837;-76
2022/12/14 02:43:32;;;;;;;13.27;7.30;;;1.60;70.30;;;2.13;46.03;97308.09;4935041;28;118076;-76
2022/12/14 02:46:19;;;;;;;15.33;8.10;;;1.60;70.30;;;2.13;46.31;97308.09;4945414;28;118610;-76
2022/12/14 02:49:54;;;;;;;15.93;9.53;;;1.70;70.40;;;2.15;46.11;97300.44;4948651;28;124027;-76
2022/12/14 02:52:43;;;;;;;16.40;9.33;;;1.70;70.40;;;2.12;46.32;97289.31;4903783;28;124426;-76
2022/12/14 02:55:50;;;;;;;16.17;8.47;;;1.70;70.40;;;2.15;46.22;97295.00;4925673;28;119990;-76
2022/12/14 02:58:27;;;;;;;16.07;9.50;;;1.70;70.50;;;2.15;46.67;97286.00;4932358;28;118974;-76
2022/12/14 03:00:56;;;;;;;15.27;9.33;;;1.70;70.60;;;2.13;46.80;97286.31;4948099;28;123856;-76
2022/12/14 03:03:23;;;;;;;18.63;10.67;;;1.70;70.60;;;2.13;46.62;97274.59;4930948;28;123834;-76
2022/12/14 03:06:13;;;;;;;17.20;9.00;;;1.70;70.70;;;2.18;46.45;97272.59;4948281;28;119311;-76
2022/12/14 03:08:44;;;;;;;14.07;8.77;;;1.70;70.90;;;2.18;46.57;97267.16;4918177;28;118287;-76
2022/12/14 03:11:19;;;;;;;14.60;9.50;;;3.70;72.70;;;2.24;46.50;97280.72;4947766;28;123743;-76
2022/12/14 03:13:54;;;;;;;19.83;9.30;;;1.70;70.90;;;2.25;46.64;97277.66;4947731;28;123708;-76
2022/12/14 03:16:27;;;;;;;16.30;9.30;;;1.80;71.10;;;2.25;46.79;97277.66;4931820;28;119745;-76
2022/12/14 03:19:09;;;;;;;14.83;9.30;;;1.80;71.10;;;2.31;46.82;97264.78;4932432;28;118608;-76
2022/12/14 03:21:50;;;;;;;18.23;10.10;;;1.80;71.10;;;2.33;46.57;97262.56;4940193;28;124501;-77
2022/12/14 03:24:42;;;;;;;12.67;9.07;;;2.90;72.10;;;2.33;46.79;97274.28;4945884;28;122997;-75
2022/12/14 03:27:32;;;;;;;14.23;9.97;;;1.90;71.20;;;2.32;47.20;97274.59;4922040;28;120602;-75
2022/12/14 03:30:11;;;;;;;18.13;10.30;;;1.80;71.30;;;2.29;46.56;97273.25;4951632;28;118856;-75
2022/12/14 03:32:52;;;;;;;14.30;9.63;;;1.80;71.40;;;2.26;47.07;97264.84;4966786;28;124204;-75
2022/12/14 03:35:33;;;;;;;17.53;9.20;;;1.80;71.50;;;2.25;47.12;97260.50;4967824;28;123972;-75
2022/12/14 03:38:23;;;;;;;18.17;9.60;;;1.80;71.70;;;2.26;47.01;97259.41;4952527;28;119373;-75
2022/12/14 03:41:08;;;;;;;12.87;8.43;;;1.80;71.90;;;2.26;47.27;97246.59;4946409;28;119329;-75
2022/12/14 03:43:37;;;;;;;20.73;10.70;;;1.80;72.00;;;2.25;47.63;97244.16;4934783;28;124042;-75
2022/12/14 03:46:14;;;;;;;17.33;10.67;;;1.80;72.10;;;2.26;47.54;97237.59;4932999;28;123776;-75
2022/12/14 03:48:51;;;;;;;20.50;10.20;;;1.80;72.30;;;2.25;47.43;97234.06;4946933;28;120949;-75
2022/12/14 03:51:39;;;;;;;11.50;8.07;;;1.80;72.40;;;2.26;48.03;97235.72;4946978;28;119874;-75
2022/12/14 03:54:13;;;;;;;14.23;9.90;;;1.80;72.60;;;2.24;48.14;97232.47;4917935;28;123990;-75
2022/12/14 03:57:38;;;;;;;15.00;9.23;;;1.80;72.70;;;2.28;47.97;97224.50;4947174;28;123742;-75
2022/12/14 04:00:15;;;;;;;15.77;9.57;;;1.80;72.90;;;2.27;47.99;97228.34;4942471;28;120512;-75
2022/12/14 04:03:14;;;;;;;16.47;9.30;;;1.80;72.90;;;2.29;48.07;97217.97;4954084;28;118352;-75
2022/12/14 04:06:14;;;;;;;14.20;9.37;;;1.80;73.00;;;2.31;48.27;97208.38;4975407;28;124078;-75
2022/12/14 04:09:14;;;;;;;20.30;10.60;;;1.90;73.20;;;2.32;47.85;97203.72;4979401;28;124242;-75
2022/12/14 04:20:25;;;;;;;16.57;10.37;;;1.80;73.50;;;2.26;48.59;97189.38;4983073;28;124322;-75
2022/12/14 04:23:06;;;;;;;16.27;9.53;;;1.80;73.80;;;2.29;48.62;97196.97;4977768;28;118888;-75
2022/12/14 04:31:25;;;;;;;20.97;10.87;;;1.90;74.10;;;2.35;48.89;97171.22;4963243;28;124439;-74
2022/12/14 04:34:03;;;;;;;14.23;9.10;;;1.90;74.20;;;2.35;48.97;97163.06;4969514;28;118023;-75
2022/12/14 04:36:45;;;;;;;14.97;9.30;;;1.90;74.20;;;2.32;48.85;97168.31;4964804;28;118760;-75
2022/12/14 04:39:46;;;;;;;18.90;10.40;;;1.90;74.20;;;2.28;48.94;97157.19;4963056;28;123879;-75
2022/12/14 04:42:15;;;;;;;17.37;9.50;;;1.80;74.20;;;2.26;49.19;97150.41;4969434;28;123116;-75
2022/12/14 04:44:51;;;;;;;16.40;9.80;;;3.20;75.60;;;2.30;49.27;97160.41;4958525;28;119801;-76
2022/12/14 04:47:22;;;;;;;16.27;10.73;;;1.90;74.60;;;2.31;49.03;97166.66;4945782;28;119726;-76
2022/12/14 04:49:55;;;;;;;18.23;10.23;;;1.90;74.60;;;2.32;49.34;97165.59;4961935;28;125968;-75
2022/12/14 04:52:50;;;;;;;16.40;9.50;;;1.90;74.70;;;2.37;49.15;97160.03;4936045;28;123856;-76
2022/12/14 04:55:29;;;;;;;17.07;10.67;;;1.90;74.80;;;2.39;49.02;97152.34;4947938;28;119149;-75
2022/12/14 04:58:10;;;;;;;16.60;10.10;;;1.90;74.80;;;2.40;49.20;97149.34;4967091;28;119692;-76
2022/12/14 05:01:23;;;;;;;18.93;11.87;;;1.90;74.80;;;2.43;49.10;97148.75;4946234;28;123735;-76
2022/12/14 05:04:26;;;;;;;21.70;9.37;;;4.00;76.70;;;2.43;49.20;97137.84;4928491;28;123401;-76
2022/12/14 05:07:23;;;;;;;20.47;10.90;;;2.00;75.00;;;2.41;49.05;97137.31;4946666;28;119268;-76
2022/12/14 05:10:02;;;;;;;14.77;10.07;;;2.00;75.00;;;2.39;49.25;97138.72;4946669;28;118913;-76
2022/12/14 05:12:56;;;;;;;19.90;10.43;;;2.00;74.80;;;2.38;49.32;97139.84;4945830;28;123882;-75
2022/12/14 05:15:30;;;;;;;20.00;10.77;;;2.00;74.90;;;2.38;49.38;97140.66;4950275;28;123853;-75
2022/12/14 05:18:02;;;;;;;17.60;10.47;;;2.00;75.00;;;2.38;49.43;97139.84;4950656;28;119102;-76
2022/12/14 05:20:29;;;;;;;17.60;10.20;;;1.90;75.10;;;2.37;49.37;97140.97;4932804;28;119001;-75
2022/12/14 05:22:55;;;;;;;19.90;12.03;;;1.90;75.10;;;2.35;49.35;97129.56;4952322;28;123919;-75
2022/12/14 05:25:22;;;;;;;19.60;11.53;;;1.90;75.10;;;2.37;49.45;97127.34;4964062;28;123542;-75
2022/12/14 05:27:49;;;;;;;19.17;10.33;;;1.90;75.20;;;2.38;49.27;97134.41;4951918;28;121410;-75
2022/12/14 05:30:15;;;;;;;18.40;10.57;;;1.90;75.30;;;2.40;49.62;97129.47;4950173;28;120130;-75
2022/12/14 05:32:42;;;;;;;19.27;10.77;;;1.90;75.40;;;2.42;49.60;97132.72;4915606;28;123952;-75
2022/12/14 05:35:12;;;;;;;21.87;13.00;;;1.90;75.40;;;2.41;49.33;97126.41;4949029;28;123770;-75
2022/12/14 05:37:40;;;;;;;20.20;11.50;;;2.00;75.50;;;2.39;49.24;97119.66;4951386;28;120253;-75
2022/12/14 05:40:08;;;;;;;19.27;11.40;;;1.90;75.50;;;2.40;49.72;97124.00;4949931;28;119877;-75
2022/12/14 05:42:35;;;;;;;20.30;10.30;;;1.90;75.60;;;2.40;49.68;97126.75;4966975;28;123551;-75
2022/12/14 05:45:01;;;;;;;19.80;11.43;;;1.90;75.60;;;2.39;49.52;97134.13;4949236;28;123866;-75
2022/12/14 05:47:28;;;;;;;13.53;9.50;;;1.90;75.70;;;2.36;49.59;97120.25;4949234;28;119764;-74
2022/12/14 05:49:54;;;;;;;24.17;10.70;;;1.90;75.70;;;2.38;49.85;97120.78;4952526;28;119111;-74
2022/12/14 05:52:25;;;;;;;17.20;11.00;;;1.90;75.90;;;2.41;49.77;97103.81;4934332;28;122619;-74
2022/12/14 05:54:52;;;;;;;17.40;10.57;;;4.00;77.80;;;2.41;50.03;97104.63;4952139;28;123834;-74
2022/12/14 05:57:39;;;;;;;18.20;11.50;;;1.90;76.00;;;2.41;49.71;97098.38;4948655;28;119304;-75
2022/12/14 06:00:07;;;;;;;21.67;12.87;;;2.00;76.20;;;2.41;50.06;97095.63;4887425;28;119034;-75
2022/12/14 06:02:33;;;;;;;16.47;10.73;;;2.00;76.30;;;2.41;50.25;97084.75;4892164;28;124147;-76
2022/12/14 06:05:00;;;;;;;18.63;10.87;;;2.00;76.40;;;2.41;50.08;97080.09;4895420;28;123394;-75
2022/12/14 06:07:26;;;;;;;20.83;11.90;;;2.00;76.50;;;2.42;50.38;97083.66;4860351;28;120118;-74
2022/12/14 06:09:53;;;;;;;21.60;13.33;;;2.00;76.60;;;2.41;50.33;97071.09;4888860;28;118646;-75
2022/12/14 06:12:19;;;;;;;19.00;11.47;;;2.40;77.30;;;2.36;50.73;97077.47;4875434;28;123063;-74
2022/12/14 06:14:46;;;;;;;27.60;15.23;;;1.90;76.90;;;2.38;50.86;97090.78;4889139;28;123651;-75
2022/12/14 06:17:12;;;;;;;20.33;12.83;;;1.90;77.20;;;2.38;50.99;97085.34;4902310;28;119260;-75
2022/12/14 06:19:39;;;;;;;20.97;12.30;;;1.90;77.40;;;2.36;50.85;97077.47;4902483;28;118165;-75
2022/12/14 06:22:05;;;;;;;22.77;12.47;;;1.90;77.40;;;2.38;51.23;97079.91;4901053;28;123855;-75
2022/12/14 06:24:33;;;;;;;19.53;10.63;;;1.90;77.60;;;2.42;51.71;97089.91;4883710;28;123673;-76
2022/12/14 06:26:59;;;;;;;26.60;12.30;;;2.00;78.30;;;2.53;53.38;97100.63;4890123;28;120393;-75
2022/12/14 06:29:26;;;;;;;23.93;13.07;;;2.00;80.10;;;2.70;54.22;97091.81;4863619;28;119817;-75
2022/12/14 06:31:52;;;;;;;21.53;12.90;;;2.90;82.40;;;2.83;54.29;97093.75;4886648;28;123990;-74
2022/12/14 06:34:19;;;;;;;19.87;12.17;;;2.20;82.90;;;2.87;54.15;97086.53;4892699;28;123641;-74
2022/12/14 06:36:46;;;;;;;22.30;12.17;;;2.30;82.60;;;2.88;53.88;97085.44;4906983;28;118309;-74
2022/12/14 06:39:18;;;;;;;23.47;12.80;;;2.30;82.30;;;2.91;54.06;97082.13;4945064;28;119130;-74
2022/12/14 06:41:49;;;;;;;19.73;12.10;;;2.40;82.30;;;2.99;54.26;97067.75;4946747;28;124189;-74
2022/12/14 06:44:16;;;;;;;24.80;14.07;;;2.40;82.70;;;3.00;53.54;97063.91;4959500;28;123790;-74
2022/12/14 06:46:43;;;;;;;19.90;12.53;;;2.40;82.30;;;2.98;53.33;97060.69;4945504;28;119834;-74
2022/12/14 06:49:16;;;;;;;22.93;12.20;;;2.40;81.90;;;2.95;52.73;97058.56;4950280;28;117967;-74
2022/12/14 06:51:43;;;;;;;22.17;12.77;;;2.40;81.70;;;2.90;52.97;97053.19;4974514;28;123417;-74
2022/12/14 06:54:11;;;;;;;24.07;13.87;;;2.40;81.60;;;2.87;53.25;97053.81;4948881;28;122882;-74
2022/12/14 06:56:39;;;;;;;23.90;12.80;;;2.40;81.60;;;2.83;53.48;97040.00;4955796;28;119044;-74
2022/12/14 06:59:07;;;;;;;23.23;13.30;;;3.10;82.30;;;2.81;53.47;97038.69;4936539;28;119068;-74
2022/12/14 07:01:36;;;;;;;21.90;13.27;;;2.30;81.60;;;2.76;53.48;97036.06;4959838;28;123028;-74
2022/12/14 07:04:04;;;;;;;22.27;13.63;;;2.30;81.90;;;2.69;54.00;97046.56;4975987;28;123548;-75
2022/12/14 07:06:35;;;;;;;24.17;14.57;;;2.30;82.00;;;2.65;53.92;97039.00;4953045;28;118411;-75
2022/12/14 07:09:03;;;;;;;18.50;12.20;;;2.20;82.10;;;2.60;54.12;97035.56;4981677;28;119047;-76
2022/12/14 07:11:32;;;;;;;24.33;14.60;;;2.10;82.30;;;2.59;54.41;97040.22;4976109;28;125768;-75
2022/12/14 07:14:04;;;;;;;23.70;13.83;;;2.10;82.30;;;2.54;54.23;97034.88;4954382;28;123855;-75
2022/12/14 07:16:33;;;;;;;25.03;15.00;;;2.10;82.50;;;2.51;54.31;97032.75;4974177;28;120193;-75
2022/12/14 07:18:59;;;;;;;22.20;12.87;;;2.00;82.60;;;2.50;54.45;97022.97;4948373;28;120103;-77
2022/12/14 07:21:26;;;;;;;22.90;13.83;;;2.20;82.90;;;2.47;54.59;97026.28;4944014;28;123138;-76
2022/12/14 07:23:53;;;;;;;22.73;13.43;;;2.00;82.80;;;2.45;54.56;97014.91;4940098;28;123437;-76
2022/12/14 07:26:23;;;;;;;25.50;14.40;;;2.00;83.10;;;2.46;54.87;97021.16;4966646;28;119773;-75
2022/12/14 07:28:50;;;;;;;21.90;13.40;;;2.00;83.30;;;2.44;54.81;97024.16;4920185;28;118101;-75
2022/12/14 07:31:20;;;;;;;24.50;13.80;;;2.00;83.30;;;2.42;55.36;97012.78;4972608;28;124306;-76
2022/12/14 07:33:48;;;;;;;24.20;14.27;;;2.00;83.40;;;2.37;55.11;97015.59;4974857;28;123004;-76
2022/12/14 07:36:17;;;;;;;25.70;13.70;;;1.90;83.60;;;2.32;55.09;97032.88;4977046;28;119108;-76
2022/12/14 07:38:46;;;;;;;30.90;16.03;;;1.80;83.80;;;2.29;55.62;97021.75;4954595;28;118897;-75
2022/12/14 07:41:23;;;;;;;22.90;12.87;;;3.00;85.30;;;2.28;55.81;97018.22;4956833;28;123825;-76
2022/12/14 07:43:53;;;;;;;18.37;11.23;;;1.80;84.20;;;2.29;55.85;97014.41;4957836;28;123534;-75
2022/12/14 07:46:26;;;;;;;30.50;14.20;;;1.80;84.30;;;2.33;56.17;97018.13;4944504;28;119624;-76
2022/12/14 07:48:55;;;;;;;21.57;12.33;;;1.80;84.60;;;2.32;55.43;97011.06;4953828;28;118560;-76
2022/12/14 07:51:30;;;;;;;21.77;13.17;;;1.90;84.60;;;2.37;55.48;96999.25;4974650;28;124166;-75
2022/12/14 07:53:58;;;;;;;25.43;15.67;;;1.90;84.60;;;2.38;55.51;96998.13;4973865;28;124109;-75
2022/12/14 07:56:29;;;;;;;26.00;15.10;;;1.90;84.80;;;2.37;55.88;96999.25;4947610;28;119206;-76
2022/12/14 07:58:57;;;;;;;22.30;13.70;;;1.90;85.00;;;2.33;55.96;96992.78;4933332;28;118119;-76
2022/12/14 08:01:30;;;;;;;22.87;14.83;;;1.80;84.90;;;2.34;55.95;96978.88;4967900;28;124584;-76
2022/12/14 08:04:06;;;;;;;23.10;13.60;;;2.10;85.20;;;2.33;55.93;96974.50;4975557;28;123516;-77
2022/12/14 08:06:34;;;;;;;24.17;13.60;;;1.80;85.00;;;2.31;56.05;96984.09;4966874;28;119975;-76
2022/12/14 08:09:02;;;;;;;23.67;13.17;;;2.50;85.70;;;2.32;55.95;96977.56;4977871;28;119639;-76
2022/12/14 08:11:28;;;;;;;24.10;12.80;;;1.80;85.10;;;2.33;56.18;96979.16;4965673;28;124067;-76
2022/12/14 08:14:01;;;;;;;23.83;14.43;;;1.90;85.20;;;2.37;56.11;96972.81;4972540;28;123710;-75
2022/12/14 08:16:28;;;;;;;22.00;13.37;;;1.90;85.10;;;2.38;55.80;96979.06;4952871;28;118879;-76
2022/12/14 08:18:56;;;;;;;20.33;13.50;;;1.90;85.10;;;2.42;55.80;96971.91;4938983;28;118349;-76
2022/12/14 08:21:24;;;;;;;27.03;15.97;;;1.90;85.10;;;2.45;56.16;96971.28;4953447;28;123750;-76
2022/12/14 08:23:53;;;;;;;20.50;13.03;;;2.00;85.30;;;2.44;56.09;96969.66;4960581;28;123756;-75
2022/12/14 08:26:23;;;;;;;23.40;13.40;;;2.00;85.30;;;2.46;56.00;96978.34;4950945;28;119145;-75
2022/12/14 08:28:49;;;;;;;26.87;16.23;;;2.00;85.40;;;2.46;56.00;96967.44;4956007;28;118303;-74
2022/12/14 08:31:20;;;;;;;29.27;16.93;;;2.00;85.50;;;2.44;56.09;96956.03;4970433;28;123885;-75
2022/12/14 08:33:48;;;;;;;22.80;13.90;;;1.90;85.40;;;2.43;56.24;96962.59;4953802;28;123786;-76
2022/12/14 08:36:23;;;;;;;23.07;14.53;;;1.90;85.60;;;2.48;55.97;96980.78;4952130;28;118560;-77
2022/12/14 08:38:59;;;;;;;30.73;16.73;;;2.00;85.70;;;2.52;56.21;96981.78;4968578;28;119018;-77
2022/12/14 08:41:27;;;;;;;24.83;14.33;;;2.00;85.90;;;2.52;56.10;96979.03;4943171;28;123814;-76
2022/12/14 08:44:18;;;;;;;27.73;15.03;;;2.00;85.70;;;2.59;56.25;96987.63;4967439;28;123510;-76
2022/12/14 08:46:45;;;;;;;22.30;13.33;;;2.10;85.80;;;2.61;56.14;96994.38;4868883;28;119195;-76
2022/12/14 08:49:12;;;;;;;22.40;14.37;;;2.10;85.80;;;2.64;56.21;96988.31;4858095;28;118702;-76
2022/12/14 08:51:38;;;;;;;22.23;12.10;;;2.20;85.90;;;2.67;55.93;96981.44;4872231;28;124021;-77
2022/12/14 08:54:05;;;;;;;21.43;12.93;;;2.20;85.80;;;2.69;56.15;96987.41;4872717;28;123557;-77
2022/12/14 08:56:32;;;;;;;21.50;13.13;;;2.20;85.80;;;2.71;56.13;96978.91;4858957;28;120246;-76
2022/12/14 08:58:59;;;;;;;27.47;13.73;;;2.20;85.90;;;2.74;55.87;96976.41;4847767;28;119904;-78
2022/12/14 09:01:28;;;;;;;23.87;15.13;;;2.60;86.20;;;2.74;56.06;96983.75;4887882;28;124148;-78
2022/12/14 09:03:55;;;;;;;23.43;14.30;;;2.20;85.90;;;2.72;55.85;96977.81;4867321;28;123907;-77
2022/12/14 09:06:26;;;;;;;23.23;14.20;;;2.20;86.00;;;2.70;56.19;96982.75;4877608;28;118713;-77
2022/12/14 09:09:14;;;;;;;31.67;17.10;;;2.20;86.10;;;2.71;56.57;96971.53;4879030;28;118985;-78
2022/12/14 09:11:40;;;;;;;24.03;15.40;;;2.20;86.90;;;2.67;56.54;96976.00;4850359;28;124009;-78
2022/12/14 09:14:07;;;;;;;29.47;13.77;;;2.20;86.50;;;2.66;56.50;96977.13;4837475;29;123760;-77
2022/12/14 09:16:33;;;;;;;23.53;13.57;;;2.20;86.60;;;2.68;56.87;96980.31;4848045;28;118924;-78
2022/12/14 09:19:00;;;;;;;22.53;14.00;;;2.20;86.80;;;2.71;56.81;96973.44;4848333;28;118993;-76
2022/12/14 09:21:26;;;;;;;26.03;16.03;;;2.20;86.90;;;2.71;56.87;96978.91;4850969;28;123854;-77
2022/12/14 09:23:53;;;;;;;28.67;15.10;;;2.20;87.20;;;2.72;57.11;96980.53;4880952;28;124233;-77
2022/12/14 09:26:22;;;;;;;25.30;14.77;;;2.30;87.30;;;2.74;57.18;96972.84;4912298;28;119068;-77
2022/12/14 09:28:52;;;;;;;26.97;14.87;;;2.30;87.30;;;2.75;57.13;96969.00;4912362;28;118973;-73
2022/12/14 09:31:21;;;;;;;28.97;16.43;;;2.60;87.70;;;2.73;57.39;96968.50;4904928;28;123854;-75
2022/12/14 09:33:49;;;;;;;33.00;17.90;;;2.20;87.40;;;2.72;57.54;96961.44;4904994;28;122981;-74
2022/12/14 09:36:19;;;;;;;31.10;17.90;;;2.20;87.50;;;2.72;57.33;96958.72;4890556;28;119088;-76
2022/12/14 09:38:46;;;;;;;29.00;15.47;;;2.20;87.60;;;2.69;57.32;96954.69;4903979;28;118036;-75
2022/12/14 09:41:33;;;;;;;28.60;15.43;;;2.20;87.80;;;2.70;57.49;96959.03;4910300;28;124124;-74
2022/12/14 09:44:23;;;;;;;36.03;18.37;;;2.20;87.80;;;2.70;57.63;96945.38;4892752;28;124077;-77
2022/12/14 09:47:16;;;;;;;22.00;13.83;;;2.20;87.90;;;2.73;57.61;96949.41;4904410;28;120229;-76
2022/12/14 09:50:20;;;;;;;26.83;16.13;;;2.20;87.90;;;2.73;57.78;96961.13;4948171;28;119769;-76
2022/12/14 09:52:53;;;;;;;31.00;15.47;;;2.30;88.10;;;2.72;57.78;96959.53;4903212;28;123450;-75
2022/12/14 09:55:25;;;;;;;67.77;29.17;;;2.30;88.30;;;2.70;59.90;96955.50;4960400;28;124302;-76
2022/12/14 09:58:04;;;;;;;66.07;29.17;;;2.20;90.20;;;2.81;60.17;96949.50;4947359;28;119674;-77
2022/12/14 10:00:39;;;;;;;47.37;21.97;;;2.30;90.50;;;2.89;60.48;96942.50;4946825;28;118895;-77
2022/12/14 10:03:31;;;;;;;42.40;21.13;;;2.40;90.60;;;3.03;60.43;96947.91;4943113;28;122929;-77
2022/12/14 10:06:36;;;;;;;33.13;20.23;;;2.50;91.00;;;3.13;60.48;96947.66;4943425;28;123644;-78
2022/12/14 10:09:44;;;;;;;32.93;18.20;;;2.60;91.10;;;3.18;60.41;96944.00;4958923;28;119648;-79
2022/12/14 10:12:37;;;;;;;32.87;17.53;;;2.60;91.00;;;3.21;60.58;96951.56;4887973;28;119182;-77
2022/12/14 10:15:36;;;;;;;27.93;16.90;;;2.70;91.10;;;3.24;60.61;96950.94;4882076;28;123920;-77
2022/12/14 10:18:41;;;;;;;34.70;16.50;;;2.70;91.20;;;3.29;59.95;96948.09;4881453;28;123741;-76
2022/12/14 10:21:18;;;;;;;29.50;16.90;;;4.80;92.10;;;3.24;59.89;96942.75;4861566;28;119076;-78
2022/12/14 10:23:59;;;;;;;35.50;19.83;;;2.70;90.80;;;3.14;60.21;96943.81;4892087;28;119401;-77
2022/12/14 10:26:43;;;;;;;30.93;18.00;;;2.60;90.80;;;3.01;59.80;96934.59;4884316;28;123853;-78
2022/12/14 10:29:30;;;;;;;32.10;18.27;;;2.50;90.80;;;2.93;59.93;96934.50;4865609;28;123892;-77
2022/12/14 10:32:29;;;;;;;22.83;15.43;;;2.40;90.80;;;2.91;60.08;96934.81;4888776;28;118885;-77
2022/12/14 10:34:56;;;;;;;28.40;15.73;;;2.40;90.80;;;2.91;60.53;96934.81;4881641;28;118865;-80
2022/12/14 10:37:35;;;;;;;27.97;17.60;;;3.80;91.40;;;2.96;60.24;96934.72;4887239;28;124088;-77
2022/12/14 10:40:22;;;;;;;25.40;15.83;;;2.40;90.80;;;2.95;60.07;96930.34;4888062;28;124658;-77
2022/12/14 10:43:06;;;;;;;33.57;16.60;;;2.60;91.00;;;2.89;60.26;96926.13;4894028;28;121840;-77
2022/12/14 10:45:51;;;;;;;31.13;17.03;;;2.40;90.90;;;2.82;60.28;96923.84;4886510;28;119233;-77
2022/12/14 10:48:57;;;;;;;30.37;17.10;;;2.40;90.90;;;2.81;60.18;96914.03;4885080;28;124306;-76
2022/12/14 10:51:47;;;;;;;26.10;16.43;;;2.30;91.00;;;2.79;60.31;96918.19;4948439;28;124148;-78
2022/12/14 10:54:33;;;;;;;27.67;17.20;;;2.30;91.00;;;2.79;60.53;96908.06;4945158;28;118315;-77
2022/12/14 10:57:00;;;;;;;24.87;14.80;;;2.30;91.10;;;2.78;61.05;96906.47;4957364;28;119593;-76
2022/12/14 10:59:34;;;;;;;27.37;16.03;;;2.40;91.10;;;2.85;60.64;96904.13;4962683;28;123675;-77
2022/12/14 11:02:20;;;;;;;23.57;15.93;;;2.40;91.10;;;2.89;60.74;96912.50;4948213;28;123485;-77
2022/12/14 11:04:58;;;;;;;28.00;16.00;;;2.40;91.10;;;2.94;60.64;96915.09;4964946;28;119343;-78